createdAt,value
2023-05-08T00:01:53.795Z,4.87
2023-05-08T00:04:20.781Z,5.00
2023-05-08T00:06:47.700Z,4.77
2023-05-08T00:09:14.110Z,4.87
2023-05-08T00:11:40.530Z,4.47
2023-05-08T00:14:06.931Z,4.63
2023-05-08T00:16:33.440Z,5.03
2023-05-08T00:19:00.604Z,4.60
2023-05-08T00:21:27.027Z,4.53
2023-05-08T00:23:53.400Z,4.77
2023-05-08T00:26:21.002Z,5.00
2023-05-08T00:28:47.785Z,5.00
2023-05-08T00:31:14.766Z,5.20
2023-05-08T00:33:41.186Z,4.77
2023-05-08T00:36:07.737Z,5.40
2023-05-08T00:38:35.090Z,5.10
2023-05-08T00:41:01.747Z,5.50
2023-05-08T00:43:29.059Z,4.93
2023-05-08T00:45:56.970Z,5.77
2023-05-08T00:48:25.010Z,5.23
2023-05-08T00:50:52.988Z,5.70
2023-05-08T00:53:19.916Z,5.30
2023-05-08T00:55:46.384Z,5.73
2023-05-08T00:58:13.630Z,5.80
2023-05-08T01:00:42.098Z,5.60
2023-05-08T01:03:09.518Z,6.10
2023-05-08T01:05:36.481Z,6.10
2023-05-08T01:08:02.903Z,6.20
2023-05-08T01:10:39.363Z,6.83
2023-05-08T01:13:20.303Z,5.63
2023-05-08T01:15:54.097Z,6.20
2023-05-08T01:18:32.376Z,5.97
2023-05-08T01:21:23.750Z,5.87
2023-05-08T01:24:21.786Z,6.40
2023-05-08T01:27:06.782Z,6.30
2023-05-08T01:29:41.771Z,6.33
2023-05-08T01:32:23.266Z,6.23
2023-05-08T01:35:03.780Z,5.70
2023-05-08T01:37:45.931Z,6.03
2023-05-08T01:40:24.945Z,6.10
2023-05-08T01:43:16.075Z,5.80
2023-05-08T01:45:51.413Z,6.27
2023-05-08T01:48:24.425Z,6.80
2023-05-08T01:50:59.142Z,5.60
2023-05-08T01:53:42.840Z,6.70
2023-05-08T01:56:19.354Z,6.17
2023-05-08T01:58:47.877Z,6.03
2023-05-08T02:01:15.520Z,6.63
2023-05-08T02:03:44.542Z,6.17
2023-05-08T02:06:16.811Z,6.40
2023-05-08T02:08:45.574Z,6.23
2023-05-08T02:11:13.567Z,6.70
2023-05-08T02:13:41.319Z,6.67
2023-05-08T02:16:11.086Z,6.93
2023-05-08T02:18:40.033Z,6.70
2023-05-08T02:21:07.243Z,6.63
2023-05-08T02:23:34.752Z,6.97
2023-05-08T02:26:03.681Z,6.97
2023-05-08T02:28:31.046Z,6.93
2023-05-08T02:30:58.761Z,6.87
2023-05-08T02:33:27.503Z,6.37
2023-05-08T02:35:56.666Z,6.67
2023-05-08T02:38:24.570Z,6.83
2023-05-08T02:40:55.486Z,6.03
2023-05-08T02:43:22.020Z,6.80
2023-05-08T02:45:58.188Z,7.33
2023-05-08T02:48:38.060Z,6.97
2023-05-08T02:51:29.106Z,6.63
2023-05-08T02:54:14.419Z,6.70
2023-05-08T02:56:48.977Z,6.87
2023-05-08T02:59:22.206Z,7.03
2023-05-08T03:02:12.262Z,7.40
2023-05-08T03:04:49.681Z,6.60
2023-05-08T03:07:16.450Z,7.43
2023-05-08T03:09:50.695Z,6.83
2023-05-08T03:12:24.642Z,6.60
2023-05-08T03:15:13.887Z,7.47
2023-05-08T03:17:43.304Z,7.73
2023-05-08T03:20:14.537Z,7.50
2023-05-08T03:22:43.548Z,6.63
2023-05-08T03:25:13.998Z,7.27
2023-05-08T03:27:41.130Z,7.53
2023-05-08T03:30:09.695Z,7.13
2023-05-08T03:32:36.898Z,7.17
2023-05-08T03:35:04.416Z,7.60
2023-05-08T03:37:30.983Z,7.13
2023-05-08T03:39:57.801Z,7.57
2023-05-08T03:42:25.599Z,7.90
2023-05-08T03:44:53.218Z,7.97
2023-05-08T03:47:21.853Z,7.43
2023-05-08T03:49:49.772Z,7.83
2023-05-08T03:52:16.609Z,7.87
2023-05-08T03:54:43.182Z,7.53
2023-05-08T03:57:10.773Z,8.10
2023-05-08T04:00:03.504Z,7.83
2023-05-08T04:02:42.445Z,7.70
2023-05-08T04:05:21.767Z,8.27
2023-05-08T04:07:53.817Z,8.10
2023-05-08T04:10:31.016Z,8.27
2023-05-08T04:13:06.558Z,7.70
2023-05-08T04:15:38.198Z,8.07
2023-05-08T04:18:14.682Z,8.23
2023-05-08T04:20:41.953Z,7.97
2023-05-08T04:23:09.709Z,8.17
2023-05-08T04:25:38.844Z,7.77
2023-05-08T04:28:05.529Z,7.50
2023-05-08T04:30:32.123Z,7.40
2023-05-08T04:32:59.438Z,7.73
2023-05-08T04:35:26.171Z,7.83
2023-05-08T04:37:52.743Z,8.17
2023-05-08T04:40:19.156Z,7.30
2023-05-08T04:42:47.436Z,7.57
2023-05-08T04:45:14.468Z,7.33
2023-05-08T04:47:41.012Z,7.90
2023-05-08T04:50:07.643Z,7.63
2023-05-08T04:52:34.023Z,8.00
2023-05-08T04:55:00.455Z,7.50
2023-05-08T04:57:26.908Z,7.33
2023-05-08T04:59:53.308Z,7.63
2023-05-08T05:02:19.766Z,7.63
2023-05-08T05:04:46.257Z,7.50
2023-05-08T05:07:12.664Z,7.50
2023-05-08T05:09:39.369Z,7.03
2023-05-08T05:12:06.921Z,7.03
2023-05-08T05:14:33.307Z,6.93
2023-05-08T05:16:59.687Z,6.83
2023-05-08T05:19:27.115Z,7.37
2023-05-08T05:21:53.587Z,6.73
2023-05-08T05:24:19.957Z,7.10
2023-05-08T05:26:46.349Z,7.10
2023-05-08T05:29:13.148Z,6.80
2023-05-08T05:31:39.604Z,7.27
2023-05-08T05:34:06.091Z,6.97
2023-05-08T05:36:32.576Z,7.07
2023-05-08T05:38:58.947Z,6.80
2023-05-08T05:41:25.837Z,7.13
2023-05-08T05:43:52.261Z,7.00
2023-05-08T05:46:18.763Z,6.57
2023-05-08T05:48:45.167Z,5.93
2023-05-08T05:51:12.006Z,6.37
2023-05-08T05:53:38.455Z,5.83
2023-05-08T05:56:05.199Z,5.47
2023-05-08T05:58:31.581Z,5.90
2023-05-08T06:01:01.028Z,5.50
2023-05-08T06:03:27.989Z,5.30
2023-05-08T06:05:55.781Z,5.43
2023-05-08T06:08:23.007Z,5.47
2023-05-08T06:10:49.475Z,5.10
2023-05-08T06:13:16.167Z,5.00
2023-05-08T06:15:42.570Z,5.07
2023-05-08T06:18:09.009Z,5.10
2023-05-08T06:20:37.470Z,5.20
2023-05-08T06:23:03.936Z,5.20
2023-05-08T06:25:31.095Z,5.57
2023-05-08T06:27:57.484Z,5.07
2023-05-08T06:30:23.837Z,4.77
2023-05-08T06:32:50.288Z,4.80
2023-05-08T06:35:18.523Z,4.90
2023-05-08T06:37:45.888Z,4.73
2023-05-08T06:40:13.615Z,4.47
2023-05-08T06:42:40.648Z,5.10
2023-05-08T06:45:08.935Z,4.23
2023-05-08T06:47:35.498Z,4.40
2023-05-08T06:50:01.939Z,3.97
2023-05-08T06:52:28.317Z,3.97
2023-05-08T06:54:54.718Z,4.13
2023-05-08T06:57:21.109Z,3.90
2023-05-08T06:59:47.498Z,3.63
2023-05-08T07:02:16.399Z,4.10
2023-05-08T07:04:44.362Z,4.20
2023-05-08T07:07:11.548Z,4.73
2023-05-08T07:09:37.974Z,3.93
2023-05-08T07:12:04.559Z,4.17
2023-05-08T07:14:30.910Z,4.07
2023-05-08T07:16:58.332Z,3.83
2023-05-08T07:19:25.038Z,4.07
2023-05-08T07:21:51.478Z,4.17
2023-05-08T07:24:17.925Z,4.20
2023-05-08T07:26:44.422Z,3.77
2023-05-08T07:29:10.828Z,4.07
2023-05-08T07:31:39.428Z,3.80
2023-05-08T07:34:07.203Z,4.03
2023-05-08T07:36:33.786Z,3.63
2023-05-08T07:39:00.145Z,3.37
2023-05-08T07:41:26.592Z,3.43
2023-05-08T07:43:53.333Z,3.90
2023-05-08T07:46:19.806Z,3.47
2023-05-08T07:48:46.383Z,3.00
2023-05-08T07:51:13.300Z,3.30
2023-05-08T07:53:39.647Z,3.60
2023-05-08T07:56:06.524Z,3.40
2023-05-08T07:58:32.880Z,3.50
2023-05-08T08:00:59.239Z,3.50
2023-05-08T08:03:25.721Z,3.60
2023-05-08T08:05:52.175Z,3.40
2023-05-08T08:08:18.598Z,3.53
2023-05-08T08:10:44.977Z,3.30
2023-05-08T08:13:11.393Z,3.30
2023-05-08T08:15:37.797Z,3.53
2023-05-08T08:18:05.250Z,3.30
2023-05-08T08:20:31.655Z,3.57
2023-05-08T08:22:58.039Z,3.40
2023-05-08T08:25:24.527Z,3.40
2023-05-08T08:27:50.943Z,3.23
2023-05-08T08:30:18.574Z,3.57
2023-05-08T08:32:45.936Z,3.33
2023-05-08T08:35:13.285Z,3.17
2023-05-08T08:37:40.158Z,3.20
2023-05-08T08:40:07.418Z,4.03
2023-05-08T08:42:34.246Z,3.57
2023-05-08T08:45:01.582Z,6.57
2023-05-08T08:47:29.738Z,3.53
2023-05-08T08:49:58.785Z,4.10
2023-05-08T08:52:43.760Z,3.37
2023-05-08T08:55:15.231Z,4.73
2023-05-08T08:57:55.097Z,3.80
2023-05-08T09:00:23.520Z,3.20
2023-05-08T09:02:50.471Z,3.60
2023-05-08T09:05:18.248Z,3.63
2023-05-08T09:07:44.783Z,3.20
2023-05-08T09:10:15.866Z,2.80
2023-05-08T09:12:42.581Z,3.20
2023-05-08T09:15:09.190Z,3.30
2023-05-08T09:17:35.779Z,3.27
2023-05-08T09:20:03.353Z,3.20
2023-05-08T09:22:30.364Z,3.63
2023-05-08T09:25:01.086Z,3.07
2023-05-08T09:27:29.443Z,3.50
2023-05-08T09:30:01.970Z,3.90
2023-05-08T09:32:32.965Z,3.33
2023-05-08T09:35:00.074Z,3.33
2023-05-08T09:37:27.607Z,3.27
2023-05-08T09:39:54.812Z,3.60
2023-05-08T09:42:21.453Z,3.27
2023-05-08T09:44:53.147Z,3.43
2023-05-08T09:47:25.275Z,3.00
2023-05-08T09:49:58.795Z,3.07
2023-05-08T09:52:25.417Z,3.10
2023-05-08T09:55:02.213Z,2.83
2023-05-08T09:57:30.364Z,3.30
2023-05-08T10:00:13.350Z,3.13
2023-05-08T10:02:41.966Z,2.72
2023-05-08T10:05:27.826Z,3.00
2023-05-08T10:07:54.425Z,3.00
2023-05-08T10:10:29.149Z,2.90
2023-05-08T10:12:56.927Z,2.92
2023-05-08T10:15:25.997Z,3.00
2023-05-08T10:18:02.422Z,2.97
2023-05-08T10:20:30.972Z,2.90
2023-05-08T10:22:58.485Z,3.08
2023-05-08T10:25:25.956Z,2.78
2023-05-08T10:28:02.277Z,2.70
2023-05-08T10:30:31.042Z,2.78
2023-05-08T10:32:59.269Z,2.58
2023-05-08T10:35:26.203Z,3.28
2023-05-08T10:37:54.400Z,2.83
2023-05-08T10:40:22.417Z,2.58
2023-05-08T10:42:49.570Z,2.47
2023-05-08T10:45:16.297Z,2.40
2023-05-08T10:47:59.381Z,2.20
2023-05-08T10:50:56.552Z,2.92
2023-05-08T10:53:34.487Z,2.60
2023-05-08T10:56:01.164Z,2.30
2023-05-08T10:58:35.745Z,2.70
2023-05-08T11:01:07.283Z,2.58
2023-05-08T11:03:44.084Z,2.42
2023-05-08T11:06:11.585Z,2.55
2023-05-08T11:08:47.759Z,2.60
2023-05-08T11:11:21.832Z,2.70
2023-05-08T11:13:52.409Z,2.88
2023-05-08T11:16:38.773Z,5.28
2023-05-08T11:19:19.006Z,5.97
2023-05-08T11:22:10.508Z,5.03
2023-05-08T11:24:38.105Z,3.97
2023-05-08T11:27:04.679Z,4.65
2023-05-08T11:29:31.112Z,3.72
2023-05-08T11:31:57.554Z,3.85
2023-05-08T11:34:42.577Z,3.30
2023-05-08T11:37:17.945Z,3.15
2023-05-08T11:39:44.471Z,2.80
2023-05-08T11:42:29.203Z,3.50
2023-05-08T11:45:14.347Z,2.50
2023-05-08T11:47:42.713Z,2.97
2023-05-08T11:50:11.306Z,2.60
2023-05-08T11:52:39.653Z,3.03
2023-05-08T11:55:08.555Z,2.60
2023-05-08T11:57:35.446Z,2.65
2023-05-08T12:00:06.741Z,2.50
2023-05-08T12:02:40.646Z,2.50
2023-05-08T12:05:08.445Z,2.72
2023-05-08T12:07:47.702Z,2.50
2023-05-08T12:10:15.671Z,2.75
2023-05-08T12:12:44.184Z,2.65
2023-05-08T12:15:13.798Z,2.53
2023-05-08T12:17:40.920Z,2.13
2023-05-08T12:20:15.228Z,2.22
2023-05-08T12:22:42.493Z,2.38
2023-05-08T12:25:11.759Z,2.50
2023-05-08T12:27:38.866Z,2.42
2023-05-08T12:30:09.578Z,2.50
2023-05-08T12:32:40.941Z,2.47
2023-05-08T12:35:12.214Z,2.60
2023-05-08T12:37:38.926Z,2.95
2023-05-08T12:40:06.288Z,2.42
2023-05-08T12:42:42.934Z,3.05
2023-05-08T12:45:16.310Z,2.80
2023-05-08T12:47:45.897Z,2.67
2023-05-08T12:50:15.066Z,9.05
2023-05-08T12:52:41.682Z,3.97
2023-05-08T12:55:31.332Z,6.60
2023-05-08T12:58:06.325Z,4.93
2023-05-08T13:00:40.263Z,2.70
2023-05-08T13:03:08.365Z,2.47
2023-05-08T13:05:42.020Z,3.50
2023-05-08T13:08:10.861Z,2.30
2023-05-08T13:10:47.124Z,2.58
2023-05-08T13:13:15.966Z,3.15
2023-05-08T13:15:42.888Z,2.60
2023-05-08T13:18:09.545Z,2.63
2023-05-08T13:20:36.594Z,2.70
2023-05-08T13:23:03.456Z,3.03
2023-05-08T13:25:30.757Z,2.38
2023-05-08T13:28:00.790Z,2.60
2023-05-08T13:30:27.521Z,2.70
2023-05-08T13:32:54.117Z,2.53
2023-05-08T13:35:21.013Z,2.40
2023-05-08T13:37:48.120Z,2.60
2023-05-08T13:40:15.700Z,2.60
2023-05-08T13:42:42.077Z,2.10
2023-05-08T13:45:10.841Z,2.22
2023-05-08T13:47:37.366Z,2.63
2023-05-08T13:50:03.969Z,2.45
2023-05-08T13:52:30.480Z,2.33
2023-05-08T13:54:57.985Z,2.22
2023-05-08T13:57:24.838Z,2.35
2023-05-08T13:59:51.228Z,2.25
2023-05-08T14:02:17.869Z,2.17
2023-05-08T14:04:44.448Z,3.88
2023-05-08T14:07:10.919Z,3.22
2023-05-08T14:09:37.314Z,2.85
2023-05-08T14:12:03.765Z,3.72
2023-05-08T14:14:31.679Z,3.45
2023-05-08T14:16:58.845Z,3.08
2023-05-08T14:19:25.231Z,2.70
2023-05-08T14:21:52.067Z,2.20
2023-05-08T14:24:18.594Z,2.50
2023-05-08T14:26:45.135Z,2.90
2023-05-08T14:29:11.693Z,2.40
2023-05-08T14:31:38.117Z,2.53
2023-05-08T14:34:04.866Z,2.03
2023-05-08T14:36:31.371Z,2.60
2023-05-08T14:38:57.787Z,2.13
2023-05-08T14:41:28.778Z,2.65
2023-05-08T14:43:55.328Z,2.80
2023-05-08T14:46:21.820Z,2.45
